EGKK/LGW METAR and TAF weather

Enter ICAO airport designator
Station Type Date Time Source
EGKK METAR 2018/12/12 23:50 UTC NOAA

EGKK 122350Z 08005KT 9999 FEW024 M01/M02 Q1018


Station Type Date Time Source
EGKK Decoded METAR 2018/12/12 23:50 UTC NOAA

London / Gatwick Airport, United Kingdom (EGKK) 51-09N 000-11W 0M
Dec 12, 2018 - 06:50 PM EST / 2018.12.12 2350 UTC
Wind: from the E (080 degrees) at 6 MPH (5 KT):0
Visibility: greater than 7 mile(s):0
Sky conditions: mostly clear
Temperature: 30 F (-1 C)
Windchill: 23 F (-5 C):1
Dew Point: 28 F (-2 C)
Relative Humidity: 92%
Pressure (altimeter): 30.06 in. Hg (1018 hPa)
ob: EGKK 122350Z 08005KT 9999 FEW024 M01/M02 Q1018
cycle: 0

Station Type Date Time Source
EGKK TAF 2018/12/12 18:09 UTC NOAA

TAF EGKK 121659Z 1218/1324 12008KT 9999 SCT030 PROB30
TEMPO 1223/1306 BKN012 PROB30 1300/1309 8000 PROB30 1321/1324 6000


Example: see airport list